Time;durP1;ratioP1;P1;durP2;ratioP2;P2;SDS_P1;SDS_P2;PMS_P1;PMS_P2;Temp;Humidity;BMP_temperature;BMP_pressure;BME280_temperature;BME280_humidity;BME280_pressure;Samples;Min_cycle;Max_cycle;Signal;HPM_P1;HPM_P2
2023/06/09 00:01:09;;;;;;;12.20;6.00;;;14.20;99.90;;;;;;5031837;28;20277;-77
2023/06/09 00:03:37;;;;;;;9.33;5.03;;;14.20;99.90;;;;;;5032239;28;20198;-78
2023/06/09 00:06:04;;;;;;;9.90;5.50;;;14.20;99.90;;;;;;5031855;28;20252;-78
2023/06/09 00:08:32;;;;;;;12.37;4.77;;;14.20;99.90;;;;;;5031678;28;20203;-76
2023/06/09 00:10:59;;;;;;;15.50;5.63;;;14.20;99.90;;;;;;5032241;28;20206;-76
2023/06/09 00:13:26;;;;;;;12.73;5.47;;;14.10;99.90;;;;;;5031591;28;20237;-77
2023/06/09 00:15:53;;;;;;;12.63;5.53;;;14.10;99.90;;;;;;5031727;28;20195;-77
2023/06/09 00:18:20;;;;;;;13.57;5.70;;;14.00;99.90;;;;;;5031908;28;20209;-78
2023/06/09 00:20:50;;;;;;;16.30;5.87;;;14.00;99.90;;;;;;5031759;28;20202;-78
2023/06/09 00:23:17;;;;;;;10.47;5.33;;;14.10;99.90;;;;;;5032187;28;20198;-77
2023/06/09 00:25:46;;;;;;;13.67;5.90;;;14.10;99.90;;;;;;5032433;28;20321;-77
2023/06/09 00:28:12;;;;;;;13.27;5.67;;;14.10;99.90;;;;;;5031181;28;20202;-77
2023/06/09 00:30:39;;;;;;;10.80;6.13;;;14.00;99.90;;;;;;5031821;28;20199;-76
2023/06/09 00:33:06;;;;;;;13.53;6.10;;;14.00;99.90;;;;;;5032396;28;20206;-77
2023/06/09 00:35:33;;;;;;;13.10;5.87;;;14.00;99.90;;;;;;5031271;28;20504;-77
2023/06/09 00:38:00;;;;;;;10.73;5.63;;;14.00;99.90;;;;;;5031912;28;20702;-78
2023/06/09 00:40:27;;;;;;;19.87;6.20;;;14.00;99.90;;;;;;5031869;28;20239;-77
2023/06/09 00:42:56;;;;;;;15.17;6.17;;;14.00;99.90;;;;;;5031570;28;20213;-77
2023/06/09 00:45:22;;;;;;;10.93;5.67;;;13.90;99.90;;;;;;5031803;28;20533;-77
2023/06/09 00:47:50;;;;;;;11.97;6.10;;;13.90;99.90;;;;;;5031928;28;20225;-77
2023/06/09 00:50:19;;;;;;;11.07;6.23;;;13.90;99.90;;;;;;5031361;28;20249;-76
2023/06/09 00:52:47;;;;;;;12.97;6.07;;;13.90;99.90;;;;;;5032105;28;20210;-77
2023/06/09 00:55:16;;;;;;;14.87;6.50;;;13.90;99.90;;;;;;5032026;28;20195;-76
2023/06/09 00:57:44;;;;;;;17.23;6.73;;;13.90;99.90;;;;;;5031053;28;20509;-77
2023/06/09 01:00:16;;;;;;;14.90;5.87;;;13.90;99.90;;;;;;5046713;28;20556;-77
2023/06/09 01:02:43;;;;;;;11.87;6.30;;;13.90;99.90;;;;;;5051076;28;20270;-77
2023/06/09 01:05:12;;;;;;;14.43;6.20;;;13.90;99.90;;;;;;5051806;28;20226;-76
2023/06/09 01:07:46;;;;;;;16.33;6.50;;;13.80;99.90;;;;;;5038626;28;20207;-76
2023/06/09 01:10:19;;;;;;;17.47;5.73;;;13.80;99.90;;;;;;5031318;28;20207;-77
2023/06/09 01:12:58;;;;;;;10.50;6.07;;;13.80;99.90;;;;;;5031487;28;20191;-76
2023/06/09 01:15:29;;;;;;;11.30;5.60;;;13.80;99.90;;;;;;5031487;28;20197;-77
2023/06/09 01:18:00;;;;;;;13.50;6.37;;;13.70;99.90;;;;;;5034979;28;20198;-77
2023/06/09 01:20:36;;;;;;;9.47;5.97;;;13.70;99.90;;;;;;5034972;28;20650;-78
2023/06/09 01:23:09;;;;;;;12.37;5.63;;;13.70;99.90;;;;;;5035127;28;20205;-76
2023/06/09 01:25:42;;;;;;;15.50;5.80;;;13.70;99.90;;;;;;5034561;28;20552;-77
2023/06/09 01:28:12;;;;;;;13.40;5.50;;;13.70;99.90;;;;;;5047349;28;20214;-77
2023/06/09 01:30:42;;;;;;;13.53;5.43;;;13.70;99.90;;;;;;5034872;28;20191;-79
2023/06/09 01:33:11;;;;;;;13.90;5.90;;;13.70;99.90;;;;;;5035578;28;20209;-77
2023/06/09 01:35:40;;;;;;;12.03;5.60;;;13.70;99.90;;;;;;5034958;28;20199;-77
2023/06/09 01:38:07;;;;;;;13.83;5.93;;;13.70;99.90;;;;;;5034125;28;20692;-77
2023/06/09 01:40:35;;;;;;;11.37;5.20;;;13.70;99.90;;;;;;5034586;28;20230;-77
2023/06/09 01:43:05;;;;;;;12.57;5.70;;;13.70;99.90;;;;;;5035155;28;20277;-76
2023/06/09 01:45:32;;;;;;;17.33;6.03;;;13.70;99.90;;;;;;5034176;28;20531;-75
2023/06/09 01:47:59;;;;;;;13.33;6.30;;;13.70;99.90;;;;;;5034911;28;20686;-76
2023/06/09 01:50:34;;;;;;;9.90;5.53;;;13.70;99.90;;;;;;5038962;28;20536;-78
2023/06/09 01:53:05;;;;;;;12.83;6.10;;;13.70;99.90;;;;;;5034262;28;20202;-77
2023/06/09 01:55:37;;;;;;;12.47;5.80;;;13.70;99.90;;;;;;5034424;28;20205;-79
2023/06/09 01:58:11;;;;;;;12.40;5.60;;;13.70;99.90;;;;;;5034503;28;20206;-76
2023/06/09 02:00:39;;;;;;;14.80;6.63;;;13.60;99.90;;;;;;5033987;28;20202;-77
2023/06/09 02:03:08;;;;;;;16.83;6.57;;;13.60;99.90;;;;;;5034880;28;20230;-77
2023/06/09 02:05:37;;;;;;;11.93;6.07;;;13.60;99.90;;;;;;5034050;28;20218;-77
2023/06/09 02:08:08;;;;;;;13.97;6.80;;;13.70;99.90;;;;;;5034006;28;20289;-78
2023/06/09 02:10:36;;;;;;;13.77;6.00;;;13.60;99.90;;;;;;5034599;28;20205;-77
2023/06/09 02:13:13;;;;;;;11.60;6.40;;;13.60;99.90;;;;;;5033616;28;20228;-76
2023/06/09 02:15:40;;;;;;;14.43;6.47;;;13.60;99.90;;;;;;5034582;28;20193;-77
2023/06/09 02:18:09;;;;;;;14.67;6.57;;;13.60;99.90;;;;;;5034473;28;20202;-78
2023/06/09 02:20:36;;;;;;;12.17;6.50;;;13.60;99.90;;;;;;5033637;28;20195;-76
2023/06/09 02:23:03;;;;;;;18.67;6.43;;;13.60;99.90;;;;;;5034435;28;20209;-77
2023/06/09 02:25:32;;;;;;;17.93;6.87;;;13.70;99.90;;;;;;5033886;28;20654;-77
2023/06/09 02:27:59;;;;;;;13.93;6.70;;;13.70;99.90;;;;;;5033218;28;20234;-77
2023/06/09 02:30:27;;;;;;;14.87;7.00;;;13.70;99.90;;;;;;5052841;28;20209;-77
2023/06/09 02:32:55;;;;;;;13.97;5.87;;;13.70;99.90;;;;;;5044407;28;20301;-77
2023/06/09 02:35:21;;;;;;;12.30;6.87;;;13.70;99.90;;;;;;5033048;28;20191;-77
2023/06/09 02:37:49;;;;;;;17.20;7.73;;;13.70;99.90;;;;;;5033960;28;20249;-77
2023/06/09 02:40:16;;;;;;;16.20;7.33;;;13.70;99.90;;;;;;5033115;28;20599;-76
2023/06/09 02:42:42;;;;;;;17.10;7.87;;;13.70;99.90;;;;;;5033081;28;20223;-78
2023/06/09 02:45:10;;;;;;;14.87;7.20;;;13.60;99.90;;;;;;5033915;28;20329;-76
2023/06/09 02:47:39;;;;;;;17.63;8.27;;;13.70;99.90;;;;;;5033661;28;20386;-77
2023/06/09 02:50:07;;;;;;;16.27;7.57;;;13.60;99.90;;;;;;5033150;28;20272;-76
2023/06/09 02:52:34;;;;;;;14.03;7.60;;;13.60;99.90;;;;;;5033415;28;20207;-77
2023/06/09 02:55:03;;;;;;;14.23;6.77;;;13.70;99.90;;;;;;5033145;28;20198;-77
2023/06/09 02:57:30;;;;;;;18.60;7.87;;;13.60;99.90;;;;;;5041064;28;20260;-79
2023/06/09 02:59:58;;;;;;;15.47;7.97;;;13.60;99.90;;;;;;5053619;28;20230;-76
2023/06/09 03:02:26;;;;;;;13.70;6.87;;;13.50;99.90;;;;;;5051284;28;20212;-77
2023/06/09 03:04:55;;;;;;;12.83;7.17;;;13.50;99.90;;;;;;5052957;28;20566;-76
2023/06/09 03:07:21;;;;;;;13.97;7.27;;;13.50;99.90;;;;;;5053233;28;20198;-76
2023/06/09 03:09:48;;;;;;;19.97;7.23;;;13.50;99.90;;;;;;5044015;28;20519;-76
2023/06/09 03:12:15;;;;;;;15.00;7.87;;;13.50;99.90;;;;;;5033252;28;20650;-76
2023/06/09 03:14:43;;;;;;;14.63;7.80;;;13.50;99.90;;;;;;5033337;28;20194;-76
2023/06/09 03:17:09;;;;;;;18.13;7.80;;;13.50;99.90;;;;;;5032392;28;20205;-76
2023/06/09 03:19:36;;;;;;;15.00;7.13;;;13.50;99.90;;;;;;5033398;28;20245;-76
2023/06/09 03:22:05;;;;;;;14.47;7.67;;;13.50;99.90;;;;;;5033327;28;20295;-75
2023/06/09 03:24:33;;;;;;;13.97;6.77;;;13.50;99.90;;;;;;5032490;28;20202;-76
2023/06/09 03:27:00;;;;;;;20.83;7.80;;;13.40;99.90;;;;;;5032927;28;20222;-77
2023/06/09 03:29:28;;;;;;;15.40;7.30;;;13.40;99.90;;;;;;5032816;28;20191;-76
2023/06/09 03:31:55;;;;;;;17.97;8.00;;;13.40;99.90;;;;;;5032026;28;20594;-77
2023/06/09 03:34:23;;;;;;;14.43;7.47;;;13.50;99.90;;;;;;5032911;28;20205;-76
2023/06/09 03:36:50;;;;;;;15.53;7.53;;;13.50;99.90;;;;;;5032359;28;20202;-76
2023/06/09 03:39:18;;;;;;;17.97;7.57;;;13.40;99.90;;;;;;5031852;28;20199;-75
2023/06/09 03:41:45;;;;;;;16.60;8.20;;;13.40;99.90;;;;;;5032926;28;20301;-78
2023/06/09 03:44:12;;;;;;;20.83;7.97;;;13.40;99.90;;;;;;5031832;28;20207;-76
2023/06/09 03:46:38;;;;;;;19.37;7.67;;;13.40;99.90;;;;;;5032365;28;20222;-76
2023/06/09 03:49:05;;;;;;;14.17;7.10;;;13.40;99.90;;;;;;5031976;28;20226;-76
2023/06/09 03:51:32;;;;;;;17.33;7.90;;;13.50;99.90;;;;;;5031540;28;20749;-76
2023/06/09 03:53:59;;;;;;;15.83;7.53;;;13.40;99.90;;;;;;5032849;28;20211;-76
2023/06/09 03:56:28;;;;;;;15.13;7.87;;;13.50;99.90;;;;;;5032534;28;20194;-76
2023/06/09 03:58:55;;;;;;;16.97;7.60;;;13.50;99.90;;;;;;5031452;28;20618;-77
2023/06/09 04:01:22;;;;;;;15.10;7.07;;;13.50;99.90;;;;;;5032545;28;20202;-77
2023/06/09 04:03:49;;;;;;;15.60;7.93;;;13.50;99.90;;;;;;5032826;28;20281;-76
2023/06/09 04:06:16;;;;;;;13.40;8.03;;;13.50;99.90;;;;;;5031119;28;20800;-75
2023/06/09 04:08:44;;;;;;;18.23;9.27;;;13.50;99.90;;;;;;5032646;28;20198;-75
2023/06/09 04:11:11;;;;;;;19.47;8.30;;;13.60;99.90;;;;;;5032136;28;20205;-76
2023/06/09 04:13:40;;;;;;;14.93;7.53;;;13.60;99.90;;;;;;5032072;28;20289;-77
2023/06/09 04:16:06;;;;;;;16.17;7.97;;;13.60;99.90;;;;;;5032285;28;20194;-78
2023/06/09 04:18:33;;;;;;;15.17;8.00;;;13.60;99.90;;;;;;5032510;28;20199;-76
2023/06/09 04:21:00;;;;;;;16.70;8.03;;;13.70;99.90;;;;;;5031591;28;20221;-76
2023/06/09 04:23:27;;;;;;;15.23;7.80;;;13.70;99.90;;;;;;5032121;28;20501;-77
2023/06/09 04:25:54;;;;;;;16.27;8.00;;;13.70;99.90;;;;;;5031914;28;20218;-75
2023/06/09 04:28:21;;;;;;;14.10;7.50;;;13.70;99.90;;;;;;5031528;28;20198;-76
2023/06/09 04:30:50;;;;;;;14.43;6.63;;;13.80;99.90;;;;;;5031936;28;20202;-76
2023/06/09 04:33:18;;;;;;;18.50;7.57;;;13.80;99.90;;;;;;5031801;28;20198;-78
2023/06/09 04:35:46;;;;;;;14.70;7.30;;;13.90;99.90;;;;;;5031332;28;20202;-76
2023/06/09 04:38:14;;;;;;;14.60;7.33;;;13.90;99.90;;;;;;5032014;28;20211;-77
2023/06/09 04:40:40;;;;;;;15.03;7.47;;;14.00;99.90;;;;;;5031660;28;20226;-76
2023/06/09 04:43:08;;;;;;;13.87;7.07;;;14.00;99.90;;;;;;5032128;28;20208;-76
2023/06/09 04:45:35;;;;;;;17.27;7.17;;;14.00;99.90;;;;;;5032152;28;20194;-78
2023/06/09 04:48:05;;;;;;;12.77;6.77;;;14.00;99.90;;;;;;5031303;28;20198;-77
2023/06/09 04:50:32;;;;;;;15.30;7.13;;;14.00;99.90;;;;;;5031899;28;20241;-76
2023/06/09 04:53:03;;;;;;;18.20;7.37;;;14.10;99.90;;;;;;5035477;28;20209;-76
2023/06/09 04:55:30;;;;;;;12.57;6.43;;;14.10;99.90;;;;;;5034986;28;20198;-77
2023/06/09 04:57:57;;;;;;;9.93;6.83;;;14.20;99.90;;;;;;5035907;28;20195;-76
2023/06/09 05:00:26;;;;;;;13.73;6.47;;;14.40;99.90;;;;;;5036033;28;20203;-78
2023/06/09 05:02:53;;;;;;;13.90;6.37;;;14.60;99.90;;;;;;5035051;28;20302;-77
2023/06/09 05:05:22;;;;;;;15.60;7.17;;;14.90;99.90;;;;;;5035688;28;20290;-78
2023/06/09 05:07:48;;;;;;;12.60;6.30;;;15.20;99.90;;;;;;5035296;28;20218;-77
2023/06/09 05:10:15;;;;;;;17.35;6.68;;;15.40;99.90;;;;;;5034770;28;20341;-77
2023/06/09 05:12:42;;;;;;;13.45;6.00;;;15.50;99.90;;;;;;5035669;28;20532;-76
2023/06/09 05:15:10;;;;;;;16.63;7.13;;;15.70;99.90;;;;;;5035622;28;20230;-77
2023/06/09 05:17:37;;;;;;;13.35;6.30;;;15.90;99.90;;;;;;5035041;28;20226;-75
2023/06/09 05:20:06;;;;;;;14.07;6.20;;;16.00;99.90;;;;;;5035276;28;20206;-77
2023/06/09 05:22:35;;;;;;;12.50;6.13;;;16.20;99.90;;;;;;5035120;28;20286;-77
2023/06/09 05:25:02;;;;;;;15.77;5.60;;;16.50;99.90;;;;;;5034818;28;20202;-77
2023/06/09 05:27:29;;;;;;;12.52;5.88;;;16.70;99.90;;;;;;5035164;28;20708;-78
2023/06/09 05:29:57;;;;;;;10.82;6.25;;;16.80;99.90;;;;;;5034406;28;20276;-75
2023/06/09 05:32:23;;;;;;;11.25;6.20;;;16.90;99.90;;;;;;5035171;28;20574;-77
2023/06/09 05:34:50;;;;;;;15.35;5.95;;;17.00;99.90;;;;;;5034845;28;20205;-77
2023/06/09 05:37:17;;;;;;;13.48;5.43;;;17.00;99.90;;;;;;5034731;28;20195;-76
2023/06/09 05:39:45;;;;;;;15.48;5.07;;;17.20;99.90;;;;;;5035036;28;20213;-77
2023/06/09 05:42:13;;;;;;;11.50;5.97;;;17.40;99.90;;;;;;5034735;28;20321;-76
2023/06/09 05:44:40;;;;;;;12.18;6.00;;;17.60;99.90;;;;;;5040604;28;20240;-76
2023/06/09 05:47:07;;;;;;;9.02;5.07;;;17.60;99.90;;;;;;5054725;28;20525;-76
2023/06/09 05:49:34;;;;;;;12.52;5.43;;;18.00;99.90;;;;;;5051571;28;20268;-77
2023/06/09 05:52:01;;;;;;;10.15;5.35;;;18.20;99.90;;;;;;5034172;28;20672;-78
2023/06/09 05:54:28;;;;;;;8.73;5.03;;;18.40;99.90;;;;;;5034621;28;20357;-76
2023/06/09 05:56:57;;;;;;;10.50;5.35;;;18.50;99.90;;;;;;5034863;28;20242;-76
2023/06/09 05:59:24;;;;;;;13.90;5.60;;;18.50;99.90;;;;;;5033615;28;20230;-77
2023/06/09 06:01:51;;;;;;;11.15;5.40;;;18.70;99.90;;;;;;5034559;28;20282;-74
2023/06/09 06:04:18;;;;;;;10.00;5.45;;;18.70;99.90;;;;;;5033250;28;20205;-76
2023/06/09 06:06:45;;;;;;;12.30;5.60;;;18.70;99.90;;;;;;5033803;28;20250;-76
2023/06/09 06:09:13;;;;;;;12.60;5.18;;;18.90;99.90;;;;;;5034299;28;20213;-78
2023/06/09 06:11:39;;;;;;;11.38;5.55;;;18.90;99.90;;;;;;5034610;28;20198;-76
2023/06/09 06:14:08;;;;;;;14.93;5.75;;;19.10;99.90;;;;;;5034965;28;20203;-77
2023/06/09 06:16:35;;;;;;;10.30;5.40;;;19.20;99.90;;;;;;5053427;28;20221;-77
2023/06/09 06:19:01;;;;;;;13.75;5.55;;;19.50;99.90;;;;;;5053416;28;20198;-76
2023/06/09 06:21:28;;;;;;;12.52;6.18;;;19.60;99.90;;;;;;5051864;28;20782;-78
2023/06/09 06:23:55;;;;;;;13.55;5.95;;;19.70;99.90;;;;;;5033882;28;20194;-81
2023/06/09 06:26:22;;;;;;;10.73;6.30;;;19.80;99.90;;;;;;5048794;28;20489;-76
2023/06/09 06:28:49;;;;;;;10.30;5.40;;;19.60;99.90;;;;;;5053574;28;20531;-77
2023/06/09 06:31:18;;;;;;;13.07;6.07;;;19.70;99.90;;;;;;5039524;28;20317;-78
2023/06/09 06:33:45;;;;;;;9.75;5.45;;;19.80;99.90;;;;;;5032903;28;20611;-79
2023/06/09 06:36:13;;;;;;;15.18;6.18;;;19.80;99.90;;;;;;5033685;28;20186;-76
2023/06/09 06:38:39;;;;;;;13.60;6.18;;;19.80;99.90;;;;;;5033197;28;20206;-77
2023/06/09 06:41:06;;;;;;;12.93;6.50;;;20.00;99.90;;;;;;5033313;28;20211;-76
2023/06/09 06:43:33;;;;;;;11.00;6.00;;;20.10;99.90;;;;;;5033477;28;20249;-77
2023/06/09 06:46:00;;;;;;;12.15;6.55;;;20.20;99.90;;;;;;5043729;28;20206;-79
2023/06/09 06:48:29;;;;;;;14.93;6.55;;;20.30;99.90;;;;;;5052399;28;20228;-77
2023/06/09 06:50:56;;;;;;;12.25;6.50;;;20.40;99.90;;;;;;5037601;28;20207;-78
2023/06/09 06:53:23;;;;;;;9.38;6.35;;;20.50;99.90;;;;;;5032633;28;20198;-78
2023/06/09 06:55:50;;;;;;;12.18;6.50;;;20.50;99.90;;;;;;5032471;28;20509;-77
2023/06/09 06:58:17;;;;;;;15.52;6.60;;;20.70;99.90;;;;;;5033676;28;20252;-78
2023/06/09 07:00:44;;;;;;;11.13;5.65;;;20.70;99.90;;;;;;5033495;28;20209;-77
2023/06/09 07:03:11;;;;;;;12.55;5.95;;;21.10;99.90;;;;;;5032592;28;20286;-81
2023/06/09 07:05:40;;;;;;;12.70;5.82;;;21.20;99.90;;;;;;5033160;28;20199;-76
2023/06/09 07:08:07;;;;;;;15.23;6.57;;;21.40;99.90;;;;;;5031930;28;20288;-76
2023/06/09 07:10:34;;;;;;;13.00;7.00;;;21.40;99.90;;;;;;5031963;28;20195;-77
2023/06/09 07:13:00;;;;;;;14.10;6.60;;;21.60;99.90;;;;;;5032113;28;20203;-78
2023/06/09 07:15:27;;;;;;;14.50;7.03;;;21.40;99.90;;;;;;5030501;28;20210;-77
2023/06/09 07:17:54;;;;;;;11.93;6.68;;;21.40;99.90;;;;;;5032477;28;20283;-77
2023/06/09 07:20:22;;;;;;;15.02;7.45;;;21.50;99.90;;;;;;5032177;28;20205;-78
2023/06/09 07:22:52;;;;;;;15.50;7.25;;;21.50;99.90;;;;;;5032236;28;20241;-78
2023/06/09 07:25:19;;;;;;;13.20;5.78;;;21.50;99.90;;;;;;5032853;28;20254;-77
2023/06/09 07:27:46;;;;;;;11.07;6.47;;;21.80;99.90;;;;;;5032679;28;20216;-77
2023/06/09 07:30:13;;;;;;;9.65;6.40;;;21.90;99.90;;;;;;5032115;28;20210;-76
2023/06/09 07:32:40;;;;;;;10.30;6.50;;;22.20;99.90;;;;;;5032894;28;20198;-77
2023/06/09 07:35:08;;;;;;;14.13;6.75;;;22.20;99.90;;;;;;5032228;28;20202;-77
2023/06/09 07:37:39;;;;;;;10.15;5.97;;;22.30;99.90;;;;;;5031818;28;20293;-76
2023/06/09 07:40:09;;;;;;;13.45;6.65;;;22.40;99.90;;;;;;5032452;28;20544;-77
2023/06/09 07:42:36;;;;;;;11.68;7.05;;;22.60;99.90;;;;;;5032326;28;20658;-76
2023/06/09 07:45:03;;;;;;;11.52;6.43;;;22.60;99.90;;;;;;5031810;28;20293;-77
2023/06/09 07:47:30;;;;;;;13.68;7.00;;;22.60;99.90;;;;;;5032537;28;20573;-77
2023/06/09 07:49:57;;;;;;;11.48;6.75;;;22.50;99.90;;;;;;5032407;28;20238;-76
2023/06/09 07:52:25;;;;;;;15.82;6.85;;;22.40;99.90;;;;;;5031488;28;20257;-76
2023/06/09 07:54:52;;;;;;;11.48;6.95;;;22.40;99.90;;;;;;5032159;28;20587;-76
2023/06/09 07:57:20;;;;;;;11.40;7.68;;;22.80;99.90;;;;;;5031915;28;20194;-76
2023/06/09 07:59:47;;;;;;;11.65;6.18;;;22.90;99.90;;;;;;5032050;28;20469;-77
2023/06/09 08:02:14;;;;;;;13.23;6.85;;;23.00;99.90;;;;;;5032299;28;20203;-78
2023/06/09 08:04:41;;;;;;;13.23;7.25;;;23.10;99.90;;;;;;5031114;28;20609;-78
2023/06/09 08:07:08;;;;;;;13.75;7.82;;;23.20;99.90;;;;;;5031939;28;20276;-78
2023/06/09 08:09:35;;;;;;;13.63;7.60;;;23.20;99.90;;;;;;5031634;28;20675;-77
2023/06/09 08:12:02;;;;;;;12.00;7.45;;;22.90;99.90;;;;;;5031702;28;20213;-77
2023/06/09 08:14:31;;;;;;;13.48;7.22;;;22.80;99.90;;;;;;5031927;28;20206;-77
2023/06/09 08:16:57;;;;;;;10.98;7.13;;;23.00;99.90;;;;;;5032051;28;20201;-76
2023/06/09 08:19:24;;;;;;;14.68;7.38;;;23.00;99.90;;;;;;5031257;28;20230;-75
2023/06/09 08:21:51;;;;;;;11.15;6.15;;;23.20;99.90;;;;;;5032347;28;20217;-77
2023/06/09 08:24:18;;;;;;;11.30;7.55;;;23.30;99.90;;;;;;5031538;28;20350;-77
2023/06/09 08:26:48;;;;;;;11.45;7.90;;;23.60;99.90;;;;;;5038404;28;20289;-79
2023/06/09 08:29:16;;;;;;;12.88;8.00;;;23.80;99.90;;;;;;5055261;28;20523;-77
2023/06/09 08:31:44;;;;;;;12.75;8.00;;;23.60;99.90;;;;;;5052502;28;20200;-78
2023/06/09 08:34:11;;;;;;;13.02;7.20;;;23.80;99.90;;;;;;5050483;28;20658;-77
2023/06/09 08:36:38;;;;;;;13.98;7.68;;;23.90;99.90;;;;;;5044005;28;20206;-78
2023/06/09 08:39:05;;;;;;;11.15;7.10;;;24.00;99.90;;;;;;5046988;28;20206;-78
2023/06/09 08:41:37;;;;;;;11.18;7.35;;;24.20;99.90;;;;;;5055966;28;20230;-78
2023/06/09 08:44:05;;;;;;;11.02;6.40;;;24.40;99.90;;;;;;5045507;28;20203;-77
2023/06/09 08:46:36;;;;;;;13.38;7.53;;;24.80;99.90;;;;;;5050817;28;20202;-79
2023/06/09 08:49:04;;;;;;;10.27;7.15;;;24.90;99.90;;;;;;5049395;28;20229;-78
2023/06/09 08:51:32;;;;;;;13.50;8.57;;;25.20;99.90;;;;;;5040933;28;20199;-79
2023/06/09 08:54:00;;;;;;;8.32;6.78;;;25.50;99.90;;;;;;5035683;28;20218;-78
2023/06/09 08:56:27;;;;;;;13.32;7.63;;;25.50;99.90;;;;;;5038844;28;20206;-78
2023/06/09 08:58:54;;;;;;;12.13;7.55;;;25.20;99.90;;;;;;5051360;28;20194;-78
2023/06/09 09:01:21;;;;;;;10.95;7.63;;;25.40;99.90;;;;;;5050582;28;20529;-77
2023/06/09 09:03:51;;;;;;;14.07;8.05;;;25.40;99.90;;;;;;5037183;28;20203;-78
2023/06/09 09:06:19;;;;;;;11.45;7.40;;;25.20;99.90;;;;;;5047887;28;20198;-78
2023/06/09 09:08:46;;;;;;;12.75;7.90;;;25.30;99.90;;;;;;5050196;28;20756;-77
2023/06/09 09:11:14;;;;;;;9.48;6.68;;;25.40;99.90;;;;;;5037745;28;20272;-80
2023/06/09 09:13:41;;;;;;;11.48;7.75;;;25.80;99.90;;;;;;5031065;28;20202;-77
2023/06/09 09:16:13;;;;;;;11.13;8.68;;;26.10;99.90;;;;;;5030902;28;20350;-77
2023/06/09 09:18:45;;;;;;;10.57;7.25;;;26.20;99.90;;;;;;5031051;28;20214;-78
2023/06/09 09:21:22;;;;;;;10.65;6.72;;;26.20;99.90;;;;;;5031294;28;20210;-79
2023/06/09 09:23:56;;;;;;;11.95;7.90;;;26.70;99.90;;;;;;5044889;28;20208;-79
2023/06/09 09:26:27;;;;;;;12.27;8.50;;;26.90;99.90;;;;;;5051090;28;20187;-79
2023/06/09 09:28:56;;;;;;;14.35;8.05;;;26.80;99.90;;;;;;5046184;28;20255;-78
2023/06/09 09:31:32;;;;;;;12.98;7.93;;;26.90;99.90;;;;;;5049719;28;20505;-78
2023/06/09 09:33:59;;;;;;;10.27;7.90;;;26.90;99.90;;;;;;5045587;28;20594;-77
2023/06/09 09:36:27;;;;;;;13.80;8.98;;;26.70;99.90;;;;;;5028936;28;20194;-78
2023/06/09 09:38:56;;;;;;;13.15;7.95;;;26.40;99.90;;;;;;5033346;28;20199;-77
2023/06/09 09:41:23;;;;;;;11.82;7.78;;;26.50;99.90;;;;;;5033338;28;20219;-77
2023/06/09 09:43:56;;;;;;;13.50;8.55;;;26.30;99.90;;;;;;5032185;28;20209;-77
2023/06/09 09:46:23;;;;;;;12.48;7.75;;;26.40;99.90;;;;;;5032845;28;20226;-78
2023/06/09 09:48:50;;;;;;;11.95;8.50;;;26.50;99.90;;;;;;5032621;28;20230;-79
2023/06/09 09:51:17;;;;;;;12.70;7.50;;;26.60;99.90;;;;;;5032717;28;20201;-78
2023/06/09 09:53:46;;;;;;;10.68;7.40;;;26.50;99.90;;;;;;5033549;28;20206;-80
2023/06/09 09:56:15;;;;;;;11.43;8.13;;;26.80;99.90;;;;;;5033424;28;20591;-77
2023/06/09 09:58:43;;;;;;;11.35;8.43;;;27.30;99.90;;;;;;5033625;28;20226;-77
2023/06/09 10:01:12;;;;;;;8.77;6.97;;;27.20;99.90;;;;;;5033221;28;20209;-77
2023/06/09 10:03:41;;;;;;;14.90;8.80;;;26.90;99.90;;;;;;5041907;28;20206;-77
2023/06/09 10:06:10;;;;;;;10.73;7.50;;;26.70;99.90;;;;;;5049412;28;20259;-77
2023/06/09 10:08:42;;;;;;;12.52;7.10;;;26.70;99.90;;;;;;5038174;28;20222;-78
2023/06/09 10:11:11;;;;;;;13.75;8.60;;;26.80;99.90;;;;;;5045074;28;20673;-77
2023/06/09 10:13:39;;;;;;;17.38;9.90;;;27.10;99.90;;;;;;5050931;28;20252;-77
2023/06/09 10:16:08;;;;;;;11.18;7.60;;;27.10;99.90;;;;;;5053008;28;20281;-77
2023/06/09 10:18:36;;;;;;;11.43;8.40;;;27.20;99.90;;;;;;5050406;28;20662;-78
2023/06/09 10:21:03;;;;;;;11.70;8.65;;;27.40;99.90;;;;;;5051015;28;20230;-78
2023/06/09 10:23:30;;;;;;;11.45;8.32;;;27.50;99.90;;;;;;5053353;28;20294;-77
2023/06/09 10:25:57;;;;;;;11.75;8.75;;;27.40;99.90;;;;;;5049947;28;20614;-77
2023/06/09 10:28:26;;;;;;;15.60;9.63;;;27.60;99.90;;;;;;5036666;28;20249;-79
2023/06/09 10:30:54;;;;;;;16.45;8.32;;;27.50;99.90;;;;;;5053663;28;20248;-77
2023/06/09 10:33:26;;;;;;;12.35;7.85;;;27.40;99.90;;;;;;5041291;28;20222;-77
2023/06/09 10:35:58;;;;;;;13.73;8.77;;;27.30;99.90;;;;;;5053179;28;20200;-78
2023/06/09 10:38:30;;;;;;;10.05;7.45;;;27.60;99.90;;;;;;5049059;28;20206;-77
2023/06/09 10:41:11;;;;;;;9.10;6.25;;;27.80;99.90;;;;;;5047906;28;20225;-80
2023/06/09 10:44:03;;;;;;;14.75;9.52;;;28.00;99.90;;;;;;5042730;28;20194;-77
2023/06/09 10:46:42;;;;;;;13.80;7.95;;;28.00;99.90;;;;;;5039584;28;20958;-78
2023/06/09 10:49:36;;;;;;;16.70;9.27;;;28.30;99.90;;;;;;5050422;28;20287;-79
2023/06/09 10:52:03;;;;;;;12.02;7.43;;;28.30;99.90;;;;;;5035478;28;20220;-79
2023/06/09 10:54:32;;;;;;;10.50;7.50;;;28.60;99.90;;;;;;5032243;28;20611;-77
2023/06/09 10:57:01;;;;;;;11.70;8.80;;;28.90;99.90;;;;;;5032760;28;20245;-78
2023/06/09 11:00:18;;;;;;;9.18;8.18;;;28.80;99.90;;;;;;5033053;28;20194;-76
2023/06/09 11:02:49;;;;;;;10.40;8.88;;;28.70;99.90;;;;;;5032734;28;20207;-77
2023/06/09 11:05:17;;;;;;;12.60;8.20;;;28.00;99.90;;;;;;5032928;28;20507;-78
2023/06/09 11:08:03;;;;;;;13.57;9.32;;;28.00;99.90;;;;;;5032158;28;20203;-78
2023/06/09 11:10:31;;;;;;;11.65;7.90;;;28.10;99.90;;;;;;5033032;28;20696;-77
2023/06/09 11:12:59;;;;;;;11.20;8.45;;;28.40;99.90;;;;;;5043405;28;20590;-78
2023/06/09 11:16:05;;;;;;;10.60;7.47;;;28.30;99.90;;;;;;5052242;28;20202;-78
2023/06/09 11:18:33;;;;;;;16.50;8.32;;;28.60;99.90;;;;;;5034214;28;20289;-78
2023/06/09 11:21:14;;;;;;;10.48;6.85;;;28.70;99.90;;;;;;5050109;28;20202;-77
2023/06/09 11:24:04;;;;;;;12.43;7.47;;;28.90;99.90;;;;;;5046277;28;20199;-79
2023/06/09 11:26:32;;;;;;;13.27;8.20;;;29.20;99.90;;;;;;5049446;28;20194;-79
2023/06/09 11:29:00;;;;;;;9.48;8.02;;;29.20;99.90;;;;;;5047916;28;20260;-78
2023/06/09 11:31:27;;;;;;;12.45;8.00;;;29.20;99.90;;;;;;5046691;28;20397;-76
2023/06/09 11:33:56;;;;;;;12.02;7.88;;;29.30;99.90;;;;;;5052055;28;20201;-77
2023/06/09 11:36:30;;;;;;;14.80;8.88;;;29.50;99.90;;;;;;5051066;28;20252;-77
2023/06/09 11:39:06;;;;;;;9.82;8.50;;;29.50;99.90;;;;;;5049136;28;20194;-76
2023/06/09 11:41:34;;;;;;;9.02;7.40;;;29.20;99.90;;;;;;5032179;28;20214;-77
2023/06/09 11:44:01;;;;;;;10.80;7.93;;;29.20;99.90;;;;;;5036954;28;20499;-78
2023/06/09 11:46:28;;;;;;;10.95;8.35;;;29.30;99.90;;;;;;5037684;28;20529;-78
2023/06/09 11:49:07;;;;;;;12.63;8.70;;;29.20;99.90;;;;;;5042634;28;20240;-77
2023/06/09 11:51:53;;;;;;;11.20;7.43;;;29.20;99.90;;;;;;5041342;28;20289;-79
2023/06/09 11:54:20;;;;;;;10.05;6.82;;;29.10;99.90;;;;;;5037818;28;20296;-78
2023/06/09 11:56:47;;;;;;;10.05;7.18;;;29.50;99.90;;;;;;5050566;28;20267;-78
2023/06/09 11:59:16;;;;;;;10.30;8.18;;;29.80;99.90;;;;;;5044799;28;20203;-77
2023/06/09 12:01:43;;;;;;;9.85;6.60;;;29.50;99.90;;;;;;5049598;28;20214;-78
2023/06/09 12:04:11;;;;;;;9.88;6.88;;;29.70;99.90;;;;;;5046907;28;20963;-78
2023/06/09 12:06:38;;;;;;;10.43;7.07;;;29.70;99.90;;;;;;5050314;28;20549;-78
2023/06/09 12:09:19;;;;;;;9.43;6.78;;;29.50;99.90;;;;;;5043963;28;20231;-77
2023/06/09 12:11:55;;;;;;;10.57;8.55;;;29.50;99.90;;;;;;5048778;28;20205;-77
2023/06/09 12:14:22;;;;;;;9.68;6.68;;;29.40;99.90;;;;;;5044264;28;20205;-78
2023/06/09 12:16:50;;;;;;;11.18;6.30;;;29.20;99.90;;;;;;5050368;28;20210;-79
2023/06/09 12:19:19;;;;;;;8.95;6.70;;;29.60;99.90;;;;;;5046850;28;20237;-79
2023/06/09 12:21:48;;;;;;;9.65;6.90;;;29.80;99.90;;;;;;5040492;28;20211;-77
2023/06/09 12:24:15;;;;;;;14.25;7.47;;;29.90;99.90;;;;;;5045879;28;20206;-79
2023/06/09 12:26:45;;;;;;;9.52;6.80;;;29.90;99.90;;;;;;5049090;28;20305;-76
2023/06/09 12:29:12;;;;;;;10.10;6.50;;;30.10;99.90;;;;;;5047287;28;20233;-78
2023/06/09 12:31:45;;;;;;;12.90;6.55;;;30.30;99.90;;;;;;5048311;28;20216;-77
2023/06/09 12:34:28;;;;;;;8.80;6.00;;;30.40;99.90;;;;;;5048022;28;20301;-77
2023/06/09 12:36:55;;;;;;;8.23;5.57;;;30.40;99.90;;;;;;5049738;28;20212;-78
2023/06/09 12:39:24;;;;;;;8.70;6.55;;;30.60;99.90;;;;;;5049757;28;20288;-78
2023/06/09 12:41:51;;;;;;;10.93;7.25;;;30.50;99.90;;;;;;5049889;28;20222;-77
2023/06/09 12:44:22;;;;;;;9.30;6.60;;;30.10;99.90;;;;;;5043551;28;20211;-80
2023/06/09 12:46:54;;;;;;;9.98;6.95;;;30.00;99.90;;;;;;5050835;28;20296;-77